Terminal Aerodrome Forecast
Issued by NWS

Current Version | Previous Version | Graphics & Text | Print | Product List | Glossary On
Versions: 1 2 3 4 5 6 7 8 9 10 11 12 13 14 15 16 17 18 19 20 21 22 23
000
FTUS41 KILN 242340
TAFLCK
TAF
KLCK 242340Z 2500/2524 11008KT 6SM -SHRA VCTS OVC040CB
     FM250100 12008KT P6SM VCTS OVC050CB
     FM250500 16008KT P6SM VCTS OVC060CB
     FM250800 17007KT P6SM VCTS OVC018CB
     FM250900 17006KT P6SM VCSH OVC015
     FM251200 18005KT P6SM VCSH OVC022
     FM251500 19007KT 6SM -SHRA OVC018
     FM251900 22008KT 6SM -SHRA OVC008
     FM252100 26008KT 3SM SHRA OVC008
     FM252300 28009KT 6SM -SHRA OVC040=

USA.gov is the U.S. government's official web portal to all federal, state and local government web resources and services.